Time;durP1;ratioP1;P1;durP2;ratioP2;P2;SDS_P1;SDS_P2;PMS_P1;PMS_P2;Temp;Humidity;BMP_temperature;BMP_pressure;BME280_temperature;BME280_humidity;BME280_pressure;Samples;Min_cycle;Max_cycle;Signal;HPM_P1;HPM_P2
2021/10/20 00:01:39;;;;;;;25.83;14.52;;;;;;;12.08;77.15;101139.47;5024348;28;20085;-73
2021/10/20 00:04:05;;;;;;;28.00;15.25;;;;;;;12.14;76.98;101132.78;5023626;28;20105;-72
2021/10/20 00:06:31;;;;;;;21.27;13.40;;;;;;;12.12;72.96;101137.38;5023788;28;20033;-72
2021/10/20 00:08:57;;;;;;;22.77;13.90;;;;;;;11.75;73.40;101127.38;5023678;28;20046;-73
2021/10/20 00:11:22;;;;;;;28.65;15.65;;;;;;;11.74;76.67;101133.66;5023676;28;20029;-73
2021/10/20 00:13:49;;;;;;;28.90;15.60;;;;;;;11.90;76.03;101133.16;5023553;28;20096;-73
2021/10/20 00:16:16;;;;;;;35.90;15.27;;;;;;;11.75;75.04;101130.03;5023587;28;20312;-73
2021/10/20 00:18:46;;;;;;;27.10;14.85;;;;;;;11.71;75.85;101131.28;5023345;28;20044;-73
2021/10/20 00:21:12;;;;;;;25.63;14.50;;;;;;;11.80;75.84;101129.66;5023255;28;20029;-74
2021/10/20 00:23:37;;;;;;;22.25;13.40;;;;;;;11.83;76.06;101127.56;5023358;28;20064;-73
2021/10/20 00:26:03;;;;;;;24.23;12.63;;;;;;;11.83;75.42;101124.91;5023257;28;20231;-73
2021/10/20 00:28:28;;;;;;;20.60;13.68;;;;;;;11.77;74.67;101130.75;5023337;28;20279;-73
2021/10/20 00:30:54;;;;;;;24.48;14.30;;;;;;;11.59;76.78;101124.41;5023375;28;20097;-73
2021/10/20 00:33:19;;;;;;;60.30;19.20;;;;;;;11.57;76.90;101115.72;5022968;28;20104;-72
2021/10/20 00:35:45;;;;;;;43.13;17.38;;;;;;;11.25;80.19;101125.63;5023253;28;20053;-72
2021/10/20 00:38:10;;;;;;;58.80;20.10;;;;;;;11.52;79.37;101118.78;5023015;28;20033;-73
2021/10/20 00:40:35;;;;;;;25.20;14.50;;;;;;;11.41;79.41;101123.31;5023114;28;20208;-73
2021/10/20 00:43:01;;;;;;;31.27;13.95;;;;;;;11.70;78.84;101128.75;5022880;28;20026;-73
2021/10/20 00:45:26;;;;;;;25.50;13.63;;;;;;;11.92;77.61;101125.06;5022992;28;20034;-73
2021/10/20 00:47:52;;;;;;;20.92;13.43;;;;;;;11.78;78.30;101126.28;5022927;28;20291;-73
2021/10/20 00:50:17;;;;;;;22.15;12.25;;;;;;;11.92;77.34;101123.25;5022505;28;20036;-73
2021/10/20 00:52:43;;;;;;;20.00;13.13;;;;;;;11.93;77.03;101132.06;5022940;28;20036;-73
2021/10/20 00:55:10;;;;;;;22.25;13.02;;;;;;;11.94;77.71;101123.94;5022476;28;20053;-73
2021/10/20 00:57:36;;;;;;;21.98;12.35;;;;;;;11.92;77.15;101120.59;5022870;28;20030;-73
2021/10/20 01:00:05;;;;;;;23.65;12.82;;;;;;;11.82;77.83;101122.38;5022692;28;20038;-73
2021/10/20 01:02:30;;;;;;;20.77;12.25;;;;;;;11.83;76.83;101121.41;5022843;28;20092;-72
2021/10/20 01:04:55;;;;;;;22.73;13.07;;;;;;;11.79;77.57;101122.66;5022813;28;20307;-72
2021/10/20 01:07:22;;;;;;;21.58;12.48;;;;;;;11.69;77.63;101119.13;5022947;28;20037;-73
2021/10/20 01:09:48;;;;;;;44.97;16.33;;;;;;;11.54;78.05;101110.69;5021905;28;20042;-73
2021/10/20 01:12:16;;;;;;;30.30;13.68;;;;;;;11.80;76.44;101124.34;5022595;28;20041;-73
2021/10/20 01:14:41;;;;;;;42.72;16.60;;;;;;;11.93;76.33;101121.44;5022294;28;20259;-73
2021/10/20 01:17:07;;;;;;;56.25;19.05;;;;;;;12.02;75.45;101124.09;5021498;28;20034;-73
2021/10/20 01:19:33;;;;;;;64.63;20.55;;;;;;;11.93;76.08;101118.78;5021936;28;20050;-73
2021/10/20 01:21:58;;;;;;;44.72;16.63;;;;;;;11.88;76.47;101110.38;5022531;28;20033;-73
2021/10/20 01:24:24;;;;;;;24.67;13.57;;;;;;;11.73;77.18;101124.00;5022342;28;20040;-73
2021/10/20 01:26:51;;;;;;;22.23;13.07;;;;;;;11.64;77.71;101124.00;5022654;28;20030;-73
2021/10/20 01:29:16;;;;;;;22.02;12.32;;;;;;;11.58;78.51;101120.06;5022539;28;20038;-73
2021/10/20 01:31:50;;;;;;;30.17;15.02;;;;;;;11.63;78.30;101111.69;5022457;28;20063;-73
2021/10/20 01:34:15;;;;;;;20.20;11.90;;;;;;;11.77;78.11;101120.16;5022374;28;20069;-72
2021/10/20 01:36:43;;;;;;;26.75;12.43;;;;;;;11.91;76.72;101110.94;5022486;28;20034;-73
2021/10/20 01:39:09;;;;;;;17.25;11.52;;;;;;;12.07;76.73;101127.19;5022086;28;20100;-74
2021/10/20 01:41:36;;;;;;;19.25;11.38;;;;;;;12.08;76.56;101112.94;5022369;28;20033;-73
2021/10/20 01:44:02;;;;;;;20.75;12.30;;;;;;;11.93;77.03;101109.00;5022314;28;20078;-73
2021/10/20 01:46:27;;;;;;;24.90;12.52;;;;;;;11.89;77.24;101112.06;5022107;28;20278;-73
2021/10/20 01:48:53;;;;;;;25.10;12.10;;;;;;;12.02;76.74;101112.66;5021975;28;20044;-73
2021/10/20 01:51:18;;;;;;;27.38;11.70;;;;;;;11.99;77.62;101124.38;5021047;28;20022;-73
2021/10/20 01:53:44;;;;;;;18.02;11.45;;;;;;;12.19;76.13;101125.22;5021811;28;20046;-73
2021/10/20 01:56:12;;;;;;;19.05;11.32;;;;;;;12.06;76.11;101125.50;5022361;28;20251;-73
2021/10/20 01:58:39;;;;;;;21.27;11.52;;;;;;;12.13;75.99;101129.28;5022225;28;20045;-73
2021/10/20 02:01:08;;;;;;;19.33;12.07;;;;;;;11.83;77.45;101113.44;5022017;28;20353;-72
2021/10/20 02:03:35;;;;;;;23.60;12.80;;;;;;;12.14;76.64;101130.97;5020862;28;20232;-72
2021/10/20 02:06:07;;;;;;;22.80;12.57;;;;;;;12.14;76.06;101124.81;5020778;28;20025;-73
2021/10/20 02:08:32;;;;;;;22.50;13.02;;;;;;;12.19;76.22;101130.53;5022085;28;20096;-73
2021/10/20 02:10:58;;;;;;;27.50;13.68;;;;;;;11.95;76.08;101096.44;5022138;28;20259;-73
2021/10/20 02:13:24;;;;;;;23.90;13.30;;;;;;;12.09;76.95;101135.84;5021937;28;20308;-73
2021/10/20 02:15:49;;;;;;;22.95;13.55;;;;;;;11.94;76.98;101126.59;5021806;28;20060;-73
2021/10/20 02:18:15;;;;;;;23.25;13.95;;;;;;;11.93;77.24;101143.50;5021866;28;20049;-73
2021/10/20 02:20:41;;;;;;;25.25;14.93;;;;;;;11.75;78.83;101132.69;5021651;28;20335;-73
2021/10/20 02:23:06;;;;;;;27.00;15.50;;;;;;;12.13;77.02;101137.25;5025080;28;20026;-73
2021/10/20 02:25:32;;;;;;;32.17;17.20;;;;;;;12.07;77.32;101145.75;5025592;28;20033;-73
2021/10/20 02:27:58;;;;;;;34.28;17.25;;;;;;;11.97;78.00;101138.75;5025495;28;20026;-73
2021/10/20 02:30:23;;;;;;;31.85;15.98;;;;;;;11.94;77.40;101149.66;5025350;28;20088;-72
2021/10/20 02:32:49;;;;;;;35.83;17.70;;;;;;;11.92;78.20;101146.28;5025516;28;20056;-72
2021/10/20 02:35:14;;;;;;;37.97;18.75;;;;;;;11.95;78.63;101146.88;5024191;28;20113;-73
2021/10/20 02:37:40;;;;;;;37.40;16.33;;;;;;;11.99;77.79;101145.63;5025536;28;20036;-73
2021/10/20 02:40:07;;;;;;;32.10;17.33;;;;;;;11.99;78.22;101148.28;5025583;28;20052;-73
2021/10/20 02:42:33;;;;;;;29.38;17.27;;;;;;;12.04;77.46;101146.03;5025472;28;20068;-73
2021/10/20 02:44:59;;;;;;;31.83;17.67;;;;;;;11.85;78.89;101146.00;5023543;28;20042;-73
2021/10/20 02:47:24;;;;;;;45.08;18.63;;;;;;;11.94;77.85;101142.53;5024069;28;20059;-73
2021/10/20 02:49:50;;;;;;;41.20;18.52;;;;;;;12.03;77.41;101128.44;5024971;28;20030;-73
2021/10/20 02:52:15;;;;;;;34.20;18.13;;;;;;;12.00;77.29;101143.78;5025108;28;20049;-73
2021/10/20 02:54:41;;;;;;;32.72;18.83;;;;;;;11.94;77.59;101144.34;5024702;28;20052;-73
2021/10/20 02:57:06;;;;;;;40.45;19.38;;;;;;;11.91;77.86;101147.28;5025125;28;20093;-73
2021/10/20 02:59:32;;;;;;;38.72;19.90;;;;;;;11.89;77.41;101138.59;5025206;28;20049;-72
2021/10/20 03:01:57;;;;;;;42.67;19.83;;;;;;;11.76;78.67;101130.88;5024949;28;20036;-72
2021/10/20 03:04:22;;;;;;;38.85;19.98;;;;;;;11.93;77.91;101129.41;5025097;28;20056;-73
2021/10/20 03:06:48;;;;;;;34.75;18.75;;;;;;;12.07;77.21;101132.50;5024884;28;20324;-73
2021/10/20 03:09:14;;;;;;;31.98;17.95;;;;;;;12.03;77.62;101128.44;5024686;28;20339;-73
2021/10/20 03:11:39;;;;;;;34.95;19.05;;;;;;;11.95;77.08;101124.78;5024839;28;20049;-73
2021/10/20 03:14:05;;;;;;;34.35;18.10;;;;;;;11.93;77.67;101129.41;5024709;28;20192;-73
2021/10/20 03:16:30;;;;;;;38.25;18.55;;;;;;;11.88;77.38;101132.47;5024617;28;20029;-73
2021/10/20 03:18:56;;;;;;;34.47;18.15;;;;;;;11.91;76.55;101142.81;5024385;28;20026;-73
2021/10/20 03:21:21;;;;;;;34.17;18.15;;;;;;;11.76;76.41;101126.41;5024454;28;20081;-73
2021/10/20 03:23:47;;;;;;;36.38;17.65;;;;;;;11.83;76.76;101134.69;5024382;28;20026;-73
2021/10/20 03:26:12;;;;;;;29.42;18.38;;;;;;;11.74;76.38;101130.16;5024411;28;20030;-72
2021/10/20 03:28:37;;;;;;;35.22;19.45;;;;;;;11.67;76.07;101132.53;5024507;28;20033;-72
2021/10/20 03:31:03;;;;;;;32.72;21.13;;;;;;;11.66;75.67;101124.69;5024294;28;20026;-73
2021/10/20 03:33:28;;;;;;;39.38;20.55;;;;;;;11.63;75.62;101119.66;5023298;28;20034;-73
2021/10/20 03:35:54;;;;;;;29.77;18.70;;;;;;;11.63;75.32;101124.97;5024280;28;20156;-73
2021/10/20 03:38:19;;;;;;;36.45;18.20;;;;;;;11.31;75.98;101117.13;5024227;28;20180;-73
2021/10/20 03:40:45;;;;;;;26.55;14.75;;;;;;;11.37;75.89;101130.72;5024262;28;20422;-73
2021/10/20 03:43:10;;;;;;;28.67;13.60;;;;;;;11.49;74.49;101134.97;5024020;28;20101;-73
2021/10/20 03:45:36;;;;;;;26.02;13.07;;;;;;;11.56;73.90;101129.13;5023958;28;20036;-73
2021/10/20 03:48:02;;;;;;;20.83;12.68;;;;;;;11.06;75.68;101136.97;5023818;28;20058;-73
2021/10/20 03:50:27;;;;;;;20.80;12.98;;;;;;;11.13;76.46;101138.13;5023924;28;20026;-73
2021/10/20 03:52:53;;;;;;;21.27;13.27;;;;;;;11.15;75.65;101133.53;5023866;28;20037;-73
2021/10/20 03:55:18;;;;;;;24.02;13.57;;;;;;;11.44;74.28;101136.31;5023687;28;20042;-72
2021/10/20 03:57:44;;;;;;;22.10;12.57;;;;;;;11.32;74.49;101138.22;5023976;28;20101;-72
2021/10/20 04:00:14;;;;;;;33.50;13.98;;;;;;;11.10;75.75;101141.03;5023663;28;20040;-73
2021/10/20 04:02:43;;;;;;;35.15;15.40;;;;;;;11.38;74.24;101126.25;5023844;28;20057;-73
2021/10/20 04:05:13;;;;;;;23.88;14.07;;;;;;;11.51;73.66;101132.19;5023833;28;20034;-73
2021/10/20 04:07:40;;;;;;;24.10;12.50;;;;;;;11.44;73.71;101141.63;5023806;28;20029;-74
2021/10/20 04:10:07;;;;;;;27.10;14.30;;;;;;;11.57;72.83;101142.25;5023608;28;20049;-73
2021/10/20 04:12:33;;;;;;;36.17;16.05;;;;;;;11.53;73.42;101132.91;5023700;28;20037;-73
2021/10/20 04:14:58;;;;;;;26.23;12.73;;;;;;;11.56;73.09;101123.81;5023571;28;20042;-73
2021/10/20 04:17:24;;;;;;;46.95;19.40;;;;;;;11.59;72.57;101132.34;5023568;28;20030;-73
2021/10/20 04:19:49;;;;;;;66.00;22.35;;;;;;;11.62;72.58;101129.44;5023293;28;20056;-73
2021/10/20 04:22:14;;;;;;;39.30;15.68;;;;;;;11.47;72.58;101136.09;5023404;28;20093;-72
2021/10/20 04:24:40;;;;;;;24.70;14.32;;;;;;;11.34;73.04;101133.63;5023238;28;20109;-72
2021/10/20 04:27:05;;;;;;;36.53;15.52;;;;;;;11.32;73.10;101145.34;5023278;28;20038;-73
2021/10/20 04:29:31;;;;;;;30.40;14.80;;;;;;;11.28;73.65;101135.97;5023465;28;20034;-73
2021/10/20 04:31:56;;;;;;;31.35;15.63;;;;;;;11.43;72.51;101138.13;5023326;28;20067;-72
2021/10/20 04:34:21;;;;;;;28.88;13.98;;;;;;;11.30;73.46;101142.81;5023048;28;20230;-72
2021/10/20 04:36:47;;;;;;;37.47;15.63;;;;;;;11.20;73.49;101147.25;5023237;28;20033;-73
2021/10/20 04:39:13;;;;;;;76.82;23.25;;;;;;;11.04;74.34;101145.06;5023215;28;20231;-73
2021/10/20 04:41:38;;;;;;;26.55;14.57;;;;;;;11.14;73.14;101148.59;5023188;28;20060;-73
2021/10/20 04:44:04;;;;;;;31.92;15.48;;;;;;;11.15;73.14;101150.28;5022941;28;20340;-73
2021/10/20 04:46:29;;;;;;;28.67;15.32;;;;;;;11.11;73.15;101151.50;5022880;28;20053;-73
2021/10/20 04:48:55;;;;;;;27.80;16.17;;;;;;;11.03;73.58;101139.88;5022933;28;20431;-73
2021/10/20 04:51:20;;;;;;;38.33;15.32;;;;;;;11.12;73.53;101152.34;5022869;28;20101;-72
2021/10/20 04:53:46;;;;;;;28.58;16.35;;;;;;;10.99;73.36;101139.31;5022737;28;20340;-72
2021/10/20 04:56:11;;;;;;;28.30;15.13;;;;;;;11.07;72.94;101150.09;5022953;28;20377;-73
2021/10/20 04:58:36;;;;;;;28.60;14.30;;;;;;;11.03;73.30;101147.84;5023109;28;20097;-73
2021/10/20 05:01:02;;;;;;;25.75;14.10;;;;;;;11.01;72.49;101142.66;5022749;28;20054;-73
2021/10/20 05:03:27;;;;;;;21.63;14.00;;;;;;;11.00;71.87;101153.41;5022550;28;20037;-73
2021/10/20 05:05:53;;;;;;;26.08;14.07;;;;;;;10.88;72.57;101150.81;5022678;28;20091;-73
2021/10/20 05:08:18;;;;;;;21.70;12.65;;;;;;;10.82;73.03;101148.69;5022641;28;20330;-73
2021/10/20 05:10:44;;;;;;;24.80;13.93;;;;;;;10.93;73.67;101147.78;5022691;28;20290;-73
2021/10/20 05:13:09;;;;;;;23.23;12.98;;;;;;;10.97;72.99;101143.91;5021350;28;20036;-73
2021/10/20 05:15:35;;;;;;;20.45;12.20;;;;;;;10.96;73.29;101152.81;5022439;28;20053;-73
2021/10/20 05:18:00;;;;;;;25.15;14.55;;;;;;;10.96;72.96;101152.81;5022412;28;20033;-72
2021/10/20 05:20:25;;;;;;;30.00;13.10;;;;;;;11.03;73.04;101146.03;5022318;28;20030;-72
2021/10/20 05:22:51;;;;;;;25.63;13.15;;;;;;;11.09;73.20;101147.31;5022556;28;20037;-73
2021/10/20 05:25:17;;;;;;;26.52;13.68;;;;;;;11.16;73.62;101157.25;5022274;28;20300;-73
2021/10/20 05:27:43;;;;;;;21.58;12.95;;;;;;;11.30;73.61;101165.84;5022661;28;20030;-73
2021/10/20 05:30:10;;;;;;;22.63;13.05;;;;;;;11.23;73.41;101165.53;5022241;28;20048;-73
2021/10/20 05:32:35;;;;;;;19.83;11.23;;;;;;;11.19;74.67;101158.81;5022352;28;20239;-73
2021/10/20 05:35:18;;;;;;;20.15;12.75;;;;;;;11.42;73.96;101162.13;5169867;23;20036;31
2021/10/20 05:37:43;;;;;;;22.80;12.20;;;;;;;11.42;73.87;101162.97;4961878;28;20087;-65
2021/10/20 05:40:09;;;;;;;30.88;14.32;;;;;;;11.45;74.13;101157.44;4964906;28;20209;-65
2021/10/20 05:42:35;;;;;;;31.00;15.13;;;;;;;11.57;72.93;101147.56;4983279;28;20061;-65
2021/10/20 05:45:00;;;;;;;31.60;14.75;;;;;;;11.68;73.05;101157.22;4983212;28;20066;-65
2021/10/20 05:47:25;;;;;;;36.20;14.85;;;;;;;11.80;72.02;101165.00;4983064;28;20042;-65
2021/10/20 05:49:51;;;;;;;39.10;14.77;;;;;;;11.80;72.68;101161.50;4983344;28;20034;-64
2021/10/20 05:52:16;;;;;;;42.22;17.15;;;;;;;11.96;71.79;101169.78;4983428;28;20047;-65
2021/10/20 05:54:42;;;;;;;29.80;16.02;;;;;;;12.24;71.10;101164.66;4983259;28;20093;-65
2021/10/20 05:57:07;;;;;;;32.95;15.75;;;;;;;12.33;70.30;101164.66;4985206;28;20046;-65
2021/10/20 05:59:33;;;;;;;25.15;15.23;;;;;;;12.32;70.41;101168.28;4987110;28;20090;-65
2021/10/20 06:01:58;;;;;;;33.97;18.42;;;;;;;12.47;69.41;101168.72;4986928;28;20334;-65
2021/10/20 06:04:23;;;;;;;35.90;20.02;;;;;;;12.64;69.29;101170.72;4986990;28;20283;-65
2021/10/20 06:06:49;;;;;;;36.30;21.88;;;;;;;13.03;67.92;101173.31;4986449;28;20355;-65
2021/10/20 06:09:14;;;;;;;38.45;22.17;;;;;;;13.04;67.20;101167.84;4986050;28;20109;-65
2021/10/20 06:11:40;;;;;;;40.50;22.20;;;;;;;13.23;66.85;101176.78;4986587;28;20039;-65
2021/10/20 06:14:06;;;;;;;32.40;19.33;;;;;;;13.41;66.51;101181.22;4986803;28;20062;-65
2021/10/20 06:16:35;;;;;;;34.95;18.05;;;;;;;13.61;65.64;101184.69;4986607;28;20093;-65
2021/10/20 06:19:00;;;;;;;31.00;17.25;;;;;;;13.78;65.04;101191.03;4986750;28;20327;-65
2021/10/20 06:21:25;;;;;;;38.78;17.45;;;;;;;13.91;64.34;101190.69;4986693;28;20034;-65
2021/10/20 06:23:51;;;;;;;30.42;17.88;;;;;;;13.66;65.26;101186.91;4985447;28;20312;-65
2021/10/20 06:26:17;;;;;;;32.58;19.13;;;;;;;13.54;65.93;101188.06;4986346;28;20035;-65
2021/10/20 06:28:42;;;;;;;40.03;20.20;;;;;;;13.53;66.21;101183.72;4986467;28;20035;-65
2021/10/20 06:31:08;;;;;;;42.42;20.65;;;;;;;13.54;66.29;101180.91;4986288;28;20134;-65
2021/10/20 06:33:33;;;;;;;36.17;19.58;;;;;;;13.43;66.48;101187.22;4985356;28;20097;-65
2021/10/20 06:36:00;;;;;;;36.30;20.20;;;;;;;13.40;67.07;101189.34;4985450;28;20097;-65
2021/10/20 06:38:25;;;;;;;35.13;20.02;;;;;;;13.42;66.91;101193.53;4986357;28;20034;-65
2021/10/20 06:40:51;;;;;;;37.47;21.50;;;;;;;13.72;66.71;101196.94;4986055;28;20061;-65
2021/10/20 06:43:16;;;;;;;40.67;19.92;;;;;;;14.01;65.88;101199.47;4986256;28;20383;-65
2021/10/20 06:45:42;;;;;;;35.08;19.50;;;;;;;14.37;64.87;101208.34;4986100;28;20315;-65
2021/10/20 06:48:07;;;;;;;37.85;20.23;;;;;;;14.65;63.71;101199.34;4986129;28;20045;-65
2021/10/20 06:50:34;;;;;;;36.85;19.73;;;;;;;14.81;62.97;101196.00;4986098;28;20063;-65
2021/10/20 06:52:59;;;;;;;43.88;21.20;;;;;;;14.95;62.34;101198.09;4986119;28;20122;-65
2021/10/20 06:55:25;;;;;;;34.03;21.30;;;;;;;15.06;61.89;101204.19;4985828;28;20335;-65
2021/10/20 06:57:50;;;;;;;37.05;21.98;;;;;;;15.38;60.96;101201.72;4986006;28;20026;-65
2021/10/20 07:00:16;;;;;;;42.78;21.67;;;;;;;15.77;60.30;101209.34;4984578;28;20335;-65
2021/10/20 07:02:42;;;;;;;38.45;21.75;;;;;;;16.02;59.76;101199.59;4986252;28;20038;-66
2021/10/20 07:05:08;;;;;;;37.33;20.05;;;;;;;16.34;59.25;101217.53;4985201;28;20309;-65
2021/10/20 07:07:33;;;;;;;32.70;19.23;;;;;;;16.22;58.52;101215.19;4984802;28;20046;-65
2021/10/20 07:09:59;;;;;;;35.35;19.67;;;;;;;16.32;58.48;101208.84;4985420;28;20282;-65
2021/10/20 07:12:25;;;;;;;31.33;19.00;;;;;;;16.42;58.95;101217.56;4985906;28;20319;-65
2021/10/20 07:14:50;;;;;;;35.10;18.75;;;;;;;16.55;57.14;101209.91;4985755;28;20030;-65
2021/10/20 07:17:16;;;;;;;28.55;17.75;;;;;;;16.68;56.94;101198.78;4985596;28;20097;-65
2021/10/20 07:19:41;;;;;;;36.53;18.75;;;;;;;16.79;56.87;101215.31;4985665;28;20043;-66
2021/10/20 07:22:08;;;;;;;30.70;17.35;;;;;;;17.05;55.93;101211.66;4985261;28;20046;-65
2021/10/20 07:24:35;;;;;;;30.83;18.35;;;;;;;17.22;55.60;101213.31;4985542;28;20049;-66
2021/10/20 07:27:01;;;;;;;32.10;17.90;;;;;;;17.15;56.41;101204.28;4984109;28;20046;-65
2021/10/20 07:29:27;;;;;;;30.75;17.25;;;;;;;17.24;55.97;101209.44;4985501;28;20243;-65
2021/10/20 07:31:52;;;;;;;37.55;17.63;;;;;;;17.53;54.69;101214.25;4985404;28;20254;-65
2021/10/20 07:34:18;;;;;;;35.80;16.23;;;;;;;17.46;53.25;101218.59;4985421;28;20272;-65
2021/10/20 07:36:44;;;;;;;30.10;14.77;;;;;;;17.61;52.80;101215.22;4984440;28;20106;-65
2021/10/20 07:39:12;;;;;;;31.17;15.35;;;;;;;17.68;52.88;101217.06;4985244;28;20094;-65
2021/10/20 07:41:38;;;;;;;27.17;15.48;;;;;;;17.77;52.87;101216.06;4984656;28;20217;-65
2021/10/20 07:44:04;;;;;;;27.52;15.02;;;;;;;18.17;51.46;101209.69;4983088;28;20040;-66
2021/10/20 07:46:29;;;;;;;26.23;14.80;;;;;;;18.27;51.03;101211.31;4984220;28;20031;-65
2021/10/20 07:48:55;;;;;;;23.73;13.32;;;;;;;17.98;51.97;101214.63;4984154;28;20123;-65
2021/10/20 07:51:20;;;;;;;27.75;13.98;;;;;;;17.94;51.94;101213.31;4984133;28;20265;-65
2021/10/20 07:53:46;;;;;;;21.88;13.23;;;;;;;18.12;51.45;101214.75;4984097;28;20204;-65
2021/10/20 07:56:11;;;;;;;26.00;13.85;;;;;;;18.35;51.05;101217.47;4983831;28;20307;-65
2021/10/20 07:58:37;;;;;;;23.17;14.57;;;;;;;18.47;50.61;101201.78;4984021;28;20228;-65
2021/10/20 08:01:02;;;;;;;27.15;13.75;;;;;;;18.69;50.32;101203.69;4983705;28;20045;-65
2021/10/20 08:03:28;;;;;;;27.90;14.27;;;;;;;18.18;51.34;101206.00;4983805;28;20039;-65
2021/10/20 08:05:54;;;;;;;22.00;14.65;;;;;;;18.17;51.93;101208.84;4983123;28;20030;-65
2021/10/20 08:08:20;;;;;;;52.70;16.92;;;;;;;18.38;51.91;101209.06;4983729;28;20078;-65
2021/10/20 08:10:45;;;;;;;25.63;13.63;;;;;;;18.55;51.50;101203.59;4981533;28;20023;-65
2021/10/20 08:13:11;;;;;;;25.35;14.35;;;;;;;18.31;51.12;101200.06;4983667;28;20033;-65
2021/10/20 08:15:39;;;;;;;23.75;14.05;;;;;;;18.36;51.54;101205.72;4983849;28;20074;-65
2021/10/20 08:18:05;;;;;;;21.92;14.55;;;;;;;17.44;52.35;101201.03;4983594;28;20039;-65
2021/10/20 08:20:34;;;;;;;24.10;14.45;;;;;;;17.46;53.42;101201.69;4983050;28;20029;-65
2021/10/20 08:23:00;;;;;;;25.23;14.95;;;;;;;17.61;52.64;101205.34;4983484;28;20045;-65
2021/10/20 08:25:26;;;;;;;24.15;14.63;;;;;;;17.38;53.05;101199.03;4983044;28;20240;-65
2021/10/20 08:27:52;;;;;;;27.00;14.85;;;;;;;17.42;53.13;101203.88;4983466;28;20027;-65
2021/10/20 08:30:18;;;;;;;26.33;15.40;;;;;;;17.10;55.32;101203.94;4983189;28;20039;-65
2021/10/20 08:32:50;;;;;;;24.40;14.50;;;;;;;17.13;55.73;101198.25;4983296;28;20034;-65
2021/10/20 08:35:16;;;;;;;23.70;14.88;;;;;;;17.42;53.98;101193.19;4982410;28;20324;-65
2021/10/20 08:37:44;;;;;;;24.35;14.15;;;;;;;17.42;54.74;101200.38;4983240;28;20047;-65
2021/10/20 08:40:12;;;;;;;29.65;15.20;;;;;;;17.06;55.02;101202.63;4982845;28;20042;-64
2021/10/20 08:42:41;;;;;;;22.52;14.65;;;;;;;16.72;55.47;101202.78;4983362;28;20065;-65
2021/10/20 08:45:08;;;;;;;27.10;15.00;;;;;;;16.77;54.90;101195.94;4983020;28;20041;-65
2021/10/20 08:47:34;;;;;;;24.13;14.75;;;;;;;17.12;55.31;101193.91;4983058;28;20026;-65
2021/10/20 08:50:03;;;;;;;23.13;14.43;;;;;;;17.34;54.96;101195.03;4982911;28;20039;-65
2021/10/20 08:52:29;;;;;;;21.83;14.25;;;;;;;17.08;53.60;101193.41;4982825;28;20057;-65
2021/10/20 08:54:54;;;;;;;22.75;13.68;;;;;;;17.19;53.94;101190.38;4981240;28;20026;-65
2021/10/20 08:57:20;;;;;;;28.42;16.27;;;;;;;17.36;55.17;101183.16;4982721;28;20027;-65
2021/10/20 08:59:45;;;;;;;22.58;14.48;;;;;;;17.51;53.80;101186.78;4982909;28;20073;-65
2021/10/20 09:02:12;;;;;;;23.58;13.73;;;;;;;17.39;53.63;101177.47;4982629;28;20202;-65
2021/10/20 09:04:37;;;;;;;21.70;14.07;;;;;;;17.25;53.18;101170.13;4982593;28;20042;-65
2021/10/20 09:07:13;;;;;;;23.20;14.13;;;;;;;17.34;53.26;101176.31;4982362;28;20062;-65
2021/10/20 09:09:40;;;;;;;26.13;14.90;;;;;;;17.59;54.25;101171.69;4980606;28;20218;-65
2021/10/20 09:12:06;;;;;;;26.70;17.42;;;;;;;17.69;53.94;101167.03;4982469;28;20094;-65
2021/10/20 09:14:31;;;;;;;22.25;14.02;;;;;;;17.91;52.53;101173.47;4982682;28;20344;-65
2021/10/20 09:17:02;;;;;;;17.98;12.57;;;;;;;17.73;50.55;101171.88;4982899;28;20034;-65
2021/10/20 09:19:32;;;;;;;21.20;13.10;;;;;;;17.78;51.84;101166.84;4982907;28;20320;-65
2021/10/20 09:22:09;;;;;;;27.88;14.25;;;;;;;17.68;53.21;101170.69;4982670;28;20035;-65
2021/10/20 09:24:34;;;;;;;21.95;13.65;;;;;;;17.52;52.99;101160.84;4965282;28;20056;-65
2021/10/20 09:27:03;;;;;;;20.63;13.85;;;;;;;17.64;52.61;101167.50;4982396;28;20041;-65
2021/10/20 09:29:31;;;;;;;24.05;14.73;;;;;;;17.97;52.13;101157.53;4982581;28;20035;-65
2021/10/20 09:31:57;;;;;;;21.13;14.48;;;;;;;17.47;53.38;101152.50;4979087;28;20224;-65
2021/10/20 09:34:32;;;;;;;21.10;13.95;;;;;;;17.14;54.46;101160.63;4982663;28;20041;-66
2021/10/20 09:36:59;;;;;;;26.63;15.52;;;;;;;16.95;55.88;101155.63;4981616;28;20031;-65
2021/10/20 09:39:25;;;;;;;21.13;14.65;;;;;;;16.89;56.17;101138.41;4981427;28;20232;-66
2021/10/20 09:42:12;;;;;;;22.52;14.90;;;;;;;17.29;56.17;101143.84;4982123;28;20031;-65
2021/10/20 09:44:49;;;;;;;19.52;14.38;;;;;;;17.49;55.25;101139.78;4982419;28;20029;-65
2021/10/20 09:47:15;;;;;;;23.27;14.35;;;;;;;17.56;56.40;101149.63;4982315;28;20038;-65
2021/10/20 09:49:54;;;;;;;23.25;14.60;;;;;;;17.56;54.65;101133.53;4982382;28;20038;-65
2021/10/20 09:52:22;;;;;;;21.75;13.70;;;;;;;17.81;54.18;101131.66;4982189;28;20039;-65
2021/10/20 09:54:49;;;;;;;20.50;14.63;;;;;;;17.49;55.09;101129.91;4982222;28;20019;-65
2021/10/20 09:57:15;;;;;;;22.52;15.75;;;;;;;17.58;55.71;101130.69;4982460;28;20353;-65
2021/10/20 09:59:43;;;;;;;22.33;13.98;;;;;;;17.38;54.48;101127.59;4980486;28;20346;-65
2021/10/20 10:02:10;;;;;;;25.00;14.13;;;;;;;17.54;54.27;101122.16;4982147;28;20034;-65
2021/10/20 10:04:40;;;;;;;20.33;13.38;;;;;;;17.54;54.22;101127.53;4982079;28;20057;-65
2021/10/20 10:07:06;;;;;;;22.02;13.07;;;;;;;17.42;52.59;101101.31;4981390;28;20034;-65
2021/10/20 10:09:32;;;;;;;17.50;12.57;;;;;;;17.38;52.19;101113.38;4982074;28;20035;-66
2021/10/20 10:12:13;;;;;;;19.88;13.50;;;;;;;17.09;54.72;101112.13;4980645;28;20205;-65
2021/10/20 10:14:45;;;;;;;19.27;13.02;;;;;;;17.08;53.94;101110.44;4982366;28;20033;-65
2021/10/20 10:17:14;;;;;;;23.30;14.77;;;;;;;17.06;54.06;101100.91;4980655;28;20291;-65
2021/10/20 10:19:41;;;;;;;24.15;14.05;;;;;;;17.01;56.90;101101.44;4982157;28;20022;-65
2021/10/20 10:22:24;;;;;;;25.25;14.68;;;;;;;17.01;55.55;101105.94;4982195;28;20026;-65
2021/10/20 10:24:50;;;;;;;24.98;14.32;;;;;;;16.94;54.83;101095.09;4981404;28;20038;-65
2021/10/20 10:27:16;;;;;;;24.60;15.48;;;;;;;16.91;55.84;101090.09;4981872;28;20034;-65
2021/10/20 10:30:15;;;;;;;22.80;14.55;;;;;;;16.98;55.51;101093.75;4981961;28;20138;-65
2021/10/20 10:32:41;;;;;;;25.75;14.73;;;;;;;16.90;56.62;101089.25;4981991;28;20208;-65
2021/10/20 10:35:08;;;;;;;22.40;15.00;;;;;;;17.12;56.54;101084.19;4980061;28;20062;-65
2021/10/20 10:37:36;;;;;;;44.20;26.05;;;;;;;17.23;56.82;101089.16;4981770;28;20090;-66
2021/10/20 10:40:22;;;;;;;28.17;17.33;;;;;;;17.68;55.47;101083.13;4981701;28;20111;-65
2021/10/20 10:42:49;;;;;;;22.38;14.35;;;;;;;17.48;54.52;101072.00;4983333;28;20182;-65
2021/10/20 10:45:22;;;;;;;23.90;14.60;;;;;;;17.61;54.50;101078.63;4985094;28;20051;-65
2021/10/20 10:48:14;;;;;;;19.58;13.90;;;;;;;17.09;55.13;101071.13;4985187;28;20031;-65
2021/10/20 10:50:55;;;;;;;24.10;13.70;;;;;;;16.98;54.37;101072.34;4981820;28;20216;-65
2021/10/20 10:53:33;;;;;;;18.50;13.43;;;;;;;17.09;54.13;101069.31;4985166;28;20030;-66
2021/10/20 10:56:08;;;;;;;21.65;14.23;;;;;;;17.12;54.64;101058.25;4984881;28;20327;-65
2021/10/20 10:59:06;;;;;;;22.15;13.77;;;;;;;17.46;53.24;101059.78;4985226;28;20047;-65
2021/10/20 11:01:45;;;;;;;23.13;14.10;;;;;;;17.28;54.32;101059.19;4977514;28;20039;-65
2021/10/20 11:04:20;;;;;;;20.65;13.88;;;;;;;17.21;54.27;101043.00;4985049;28;20039;-65
2021/10/20 11:06:48;;;;;;;21.10;13.35;;;;;;;17.26;55.18;101039.78;4984282;28;20313;-65
2021/10/20 11:09:21;;;;;;;19.63;13.45;;;;;;;17.20;55.12;101035.97;4985244;28;20456;-65